createdAt,value
2016-03-15T00:00:34.733Z,1
2016-03-15T00:03:45.208Z,1
2016-03-15T00:06:53.800Z,1
2016-03-15T00:10:02.933Z,1
2016-03-15T00:13:12.801Z,1
2016-03-15T00:16:30.765Z,1
2016-03-15T00:19:37.710Z,1
2016-03-15T00:22:38.890Z,1
2016-03-15T00:25:48.008Z,1
2016-03-15T00:28:58.672Z,1
2016-03-15T00:32:10.774Z,1
2016-03-15T00:35:22.845Z,1
2016-03-15T00:38:34.778Z,0
2016-03-15T00:41:46.880Z,0
2016-03-15T00:44:56.606Z,0
2016-03-15T00:48:08.646Z,0
2016-03-15T00:51:17.889Z,0
2016-03-15T00:54:34.243Z,0
2016-03-15T00:57:35.428Z,0
2016-03-15T01:00:45.029Z,0
2016-03-15T01:03:57.069Z,0
2016-03-15T01:07:07.014Z,0
2016-03-15T01:10:19.178Z,0
2016-03-15T01:13:34.689Z,0
2016-03-15T01:16:35.822Z,0
2016-03-15T01:19:47.768Z,0
2016-03-15T01:22:59.229Z,0
2016-03-15T01:26:08.721Z,0
2016-03-15T01:29:18.682Z,0
2016-03-15T01:32:36.693Z,0
2016-03-15T01:35:37.734Z,0
2016-03-15T01:38:49.898Z,0
2016-03-15T01:42:00.484Z,0
2016-03-15T01:45:12.491Z,0
2016-03-15T01:48:22.172Z,0
2016-03-15T01:51:34.182Z,0
2016-03-15T01:54:45.643Z,0
2016-03-15T01:57:55.979Z,0
2016-03-15T02:01:05.676Z,0
2016-03-15T02:04:14.246Z,0
2016-03-15T02:07:32.303Z,0
2016-03-15T02:10:33.420Z,0
2016-03-15T02:13:45.460Z,0
2016-03-15T02:16:57.233Z,0
2016-03-15T02:20:08.961Z,0
2016-03-15T02:23:20.828Z,0
2016-03-15T02:26:39.042Z,0
2016-03-15T02:29:40.128Z,0
2016-03-15T02:32:52.198Z,0
2016-03-15T02:36:02.551Z,0
2016-03-15T02:39:14.528Z,0
2016-03-15T02:42:30.897Z,0
2016-03-15T02:45:38.015Z,0
2016-03-15T02:48:38.992Z,0
2016-03-15T02:51:51.046Z,0
2016-03-15T02:55:01.024Z,0
2016-03-15T02:58:10.626Z,0
2016-03-15T03:01:22.649Z,0
2016-03-15T03:04:34.612Z,0
2016-03-15T03:07:46.620Z,0
2016-03-15T03:10:58.676Z,0
2016-03-15T03:14:10.825Z,0
2016-03-15T03:17:23.082Z,0
2016-03-15T03:20:34.750Z,0
2016-03-15T03:23:47.008Z,0
2016-03-15T03:26:56.391Z,0
2016-03-15T03:30:06.258Z,0
2016-03-15T03:33:18.109Z,0
2016-03-15T03:36:35.981Z,0
2016-03-15T03:39:37.129Z,0
2016-03-15T03:42:46.308Z,0
2016-03-15T03:45:58.083Z,0
2016-03-15T03:49:10.231Z,0
2016-03-15T03:52:22.411Z,0
2016-03-15T03:55:34.734Z,0
2016-03-15T03:58:46.773Z,0
2016-03-15T04:01:58.688Z,0
2016-03-15T04:05:10.962Z,0
2016-03-15T04:08:23.422Z,0
2016-03-15T04:11:35.356Z,0
2016-03-15T04:14:44.879Z,0
2016-03-15T04:17:56.981Z,0
2016-03-15T04:21:06.541Z,0
2016-03-15T04:24:18.643Z,0
2016-03-15T04:27:33.340Z,0
2016-03-15T04:30:34.551Z,0
2016-03-15T04:33:46.013Z,0
2016-03-15T04:36:57.993Z,0
2016-03-15T04:40:09.940Z,0
2016-03-15T04:43:20.729Z,0
2016-03-15T04:46:36.474Z,0
2016-03-15T04:49:37.638Z,1
2016-03-15T04:52:49.615Z,0
2016-03-15T04:56:01.514Z,2
2016-03-15T04:59:13.491Z,3
2016-03-15T05:02:31.422Z,6
2016-03-15T05:05:38.556Z,7
2016-03-15T05:08:39.721Z,14
2016-03-15T05:11:51.776Z,19
2016-03-15T05:15:01.159Z,20
2016-03-15T05:18:13.182Z,30
2016-03-15T05:21:22.331Z,56
2016-03-15T05:24:34.357Z,77
2016-03-15T05:27:43.990Z,110
2016-03-15T05:30:56.170Z,159
2016-03-15T05:34:08.350Z,236
2016-03-15T05:37:20.577Z,277
2016-03-15T05:40:38.869Z,286
2016-03-15T05:43:40.143Z,323
2016-03-15T05:46:52.229Z,386
2016-03-15T05:50:04.299Z,451
2016-03-15T05:53:14.854Z,525
2016-03-15T05:56:32.990Z,536
2016-03-15T05:59:34.326Z,590
2016-03-15T06:02:46.444Z,781
2016-03-15T06:05:58.514Z,828
2016-03-15T06:09:08.643Z,976
2016-03-15T06:12:18.405Z,998
2016-03-15T06:15:36.393Z,1149
2016-03-15T06:18:37.628Z,1276
2016-03-15T06:21:47.380Z,1470
2016-03-15T06:24:59.541Z,1564
2016-03-15T06:28:11.579Z,1587
2016-03-15T06:31:29.775Z,1659
2016-03-15T06:34:37.037Z,1831
2016-03-15T06:37:38.450Z,2292
2016-03-15T06:40:48.224Z,2602
2016-03-15T06:44:00.655Z,2866
2016-03-15T06:47:09.740Z,2888
2016-03-15T06:50:21.998Z,2570
2016-03-15T06:53:37.868Z,2850
2016-03-15T06:56:39.657Z,2719
2016-03-15T06:59:51.962Z,2631
2016-03-15T07:03:04.393Z,3279
2016-03-15T07:06:16.589Z,3865
2016-03-15T07:09:35.040Z,3667
2016-03-15T07:12:36.454Z,3711
2016-03-15T07:15:45.885Z,3535
2016-03-15T07:18:56.127Z,3652
2016-03-15T07:22:08.447Z,4329
2016-03-15T07:25:20.987Z,6680
2016-03-15T07:28:37.560Z,7119
2016-03-15T07:31:39.271Z,8458
2016-03-15T07:34:49.248Z,9377
2016-03-15T07:38:00.537Z,8637
2016-03-15T07:41:12.904Z,8565
2016-03-15T07:44:22.459Z,7901
2016-03-15T07:47:35.002Z,4911
2016-03-15T07:50:47.353Z,4371
2016-03-15T07:53:57.300Z,4792
2016-03-15T07:57:09.760Z,5322
2016-03-15T08:00:22.190Z,5911
2016-03-15T08:03:37.326Z,6630
2016-03-15T08:06:39.005Z,6467
2016-03-15T08:09:51.202Z,5941
2016-03-15T08:13:03.538Z,4248
2016-03-15T08:16:14.046Z,3958
2016-03-15T08:19:23.507Z,3119
2016-03-15T08:22:35.987Z,2676
2016-03-15T08:25:48.291Z,2323
2016-03-15T08:28:57.627Z,2303
2016-03-15T08:32:07.119Z,2306
2016-03-15T08:35:19.409Z,1852
2016-03-15T08:38:37.827Z,2690
2016-03-15T08:41:39.163Z,1972
2016-03-15T08:44:47.983Z,2360
2016-03-15T08:47:57.663Z,2263
2016-03-15T08:51:10.062Z,2251
2016-03-15T08:54:22.539Z,2636
2016-03-15T08:57:34.750Z,2400
2016-03-15T09:00:46.886Z,2480
2016-03-15T09:03:56.441Z,1809
2016-03-15T09:07:06.761Z,1916
2016-03-15T09:10:18.909Z,2201
2016-03-15T09:13:34.683Z,1829
2016-03-15T09:16:35.898Z,2301
2016-03-15T09:19:44.562Z,2198
2016-03-15T09:22:54.007Z,2540
2016-03-15T09:26:06.125Z,2612
2016-03-15T09:29:18.414Z,3079
2016-03-15T09:32:36.518Z,2777
2016-03-15T09:35:38.135Z,2740
2016-03-15T09:38:46.207Z,1868
2016-03-15T09:41:57.965Z,3114
2016-03-15T09:45:08.988Z,3202
2016-03-15T09:48:18.996Z,3054
2016-03-15T09:51:37.287Z,2182
2016-03-15T09:54:38.671Z,2080
2016-03-15T09:57:47.804Z,2104
2016-03-15T10:00:57.812Z,1893
2016-03-15T10:04:06.570Z,2179
2016-03-15T10:07:18.985Z,2627
2016-03-15T10:10:37.344Z,2692
2016-03-15T10:13:38.696Z,2374
2016-03-15T10:16:51.063Z,2051
2016-03-15T10:20:03.337Z,1679
2016-03-15T10:23:13.236Z,1701
2016-03-15T10:26:23.478Z,1724
2016-03-15T10:29:35.924Z,1789
2016-03-15T10:32:45.200Z,1971
2016-03-15T10:35:57.489Z,3023
2016-03-15T10:39:08.013Z,2985
2016-03-15T10:42:20.271Z,3821
2016-03-15T10:45:35.951Z,2387
2016-03-15T10:48:37.182Z,2532
2016-03-15T10:51:49.298Z,2166
2016-03-15T10:55:01.634Z,2364
2016-03-15T10:58:10.845Z,2567
2016-03-15T11:01:20.728Z,2905
2016-03-15T11:04:36.315Z,4109
2016-03-15T11:07:37.654Z,4470
2016-03-15T11:10:48.333Z,3360
2016-03-15T11:14:01.249Z,3045
2016-03-15T11:17:13.787Z,3072
2016-03-15T11:20:31.874Z,2661
2016-03-15T11:23:39.290Z,2708
2016-03-15T11:26:40.705Z,2298
2016-03-15T11:29:50.884Z,1897
2016-03-15T11:33:03.096Z,1799
2016-03-15T11:36:15.260Z,1738
2016-03-15T11:39:31.144Z,1750
2016-03-15T11:42:38.466Z,1594
2016-03-15T11:45:39.756Z,1785
2016-03-15T11:48:52.170Z,1745
2016-03-15T11:52:04.100Z,1726
2016-03-15T11:55:15.139Z,1870
2016-03-15T11:58:33.600Z,2188
2016-03-15T12:01:34.875Z,2281
2016-03-15T12:04:44.963Z,2216
2016-03-15T12:07:57.143Z,2536
2016-03-15T12:11:08.963Z,2909
2016-03-15T12:14:21.002Z,3059
2016-03-15T12:17:39.295Z,3584
2016-03-15T12:20:40.600Z,3046
2016-03-15T12:23:50.373Z,2105
2016-03-15T12:27:02.444Z,2420
2016-03-15T12:30:13.389Z,1970
2016-03-15T12:33:22.695Z,2154
2016-03-15T12:36:39.064Z,3865
2016-03-15T12:39:40.385Z,3954
2016-03-15T12:42:52.143Z,3601
2016-03-15T12:46:02.479Z,3572
2016-03-15T12:49:14.129Z,3765
2016-03-15T12:52:23.871Z,3794
2016-03-15T12:55:36.191Z,4047
2016-03-15T12:58:48.406Z,4486
2016-03-15T13:01:57.617Z,4837
2016-03-15T13:05:09.875Z,4154
2016-03-15T13:08:22.444Z,4907
2016-03-15T13:11:34.562Z,3751
2016-03-15T13:14:46.746Z,3869
2016-03-15T13:17:58.832Z,4951
2016-03-15T13:21:09.902Z,4172
2016-03-15T13:24:22.254Z,4333
2016-03-15T13:27:34.620Z,3932
2016-03-15T13:30:47.273Z,3430
2016-03-15T13:33:58.172Z,4899
2016-03-15T13:37:10.430Z,4495
2016-03-15T13:40:22.688Z,4029
2016-03-15T13:43:34.977Z,3205
2016-03-15T13:46:47.269Z,3041
2016-03-15T13:49:59.543Z,4719
2016-03-15T13:53:11.910Z,4955
2016-03-15T13:56:22.527Z,5007
2016-03-15T13:59:34.909Z,4624
2016-03-15T14:02:47.171Z,4295
2016-03-15T14:05:57.742Z,3525
2016-03-15T14:09:09.937Z,3022
2016-03-15T14:12:22.508Z,2138
2016-03-15T14:15:39.141Z,2198
2016-03-15T14:18:40.493Z,3097
2016-03-15T14:21:51.222Z,3082
2016-03-15T14:25:03.559Z,2707
2016-03-15T14:28:12.598Z,3032
2016-03-15T14:31:23.182Z,2832
2016-03-15T14:34:35.459Z,2113
2016-03-15T14:37:47.703Z,1925
2016-03-15T14:40:56.195Z,1879
2016-03-15T14:44:07.017Z,1674
2016-03-15T14:47:19.415Z,1581
2016-03-15T14:50:37.783Z,1224
2016-03-15T14:53:38.994Z,1491
2016-03-15T14:56:47.379Z,2135
2016-03-15T14:59:59.700Z,1753
2016-03-15T15:03:10.708Z,1580
2016-03-15T15:06:23.029Z,1598
2016-03-15T15:09:35.021Z,1498
2016-03-15T15:12:44.947Z,1449
2016-03-15T15:15:55.790Z,1308
2016-03-15T15:19:05.629Z,1027
2016-03-15T15:22:17.465Z,1193
2016-03-15T15:25:33.389Z,1927
2016-03-15T15:28:34.595Z,1708
2016-03-15T15:31:45.978Z,1589
2016-03-15T15:34:58.063Z,1844
2016-03-15T15:38:08.884Z,1892
2016-03-15T15:41:19.173Z,1744
2016-03-15T15:44:34.713Z,1818
2016-03-15T15:47:35.784Z,1869
2016-03-15T15:50:47.825Z,1693
2016-03-15T15:53:56.646Z,1596
2016-03-15T15:57:07.389Z,1134
2016-03-15T16:00:19.380Z,769
2016-03-15T16:03:37.404Z,556
2016-03-15T16:06:38.476Z,496
2016-03-15T16:09:50.397Z,368
2016-03-15T16:12:59.358Z,285
2016-03-15T16:16:11.148Z,399
2016-03-15T16:19:23.031Z,392
2016-03-15T16:22:35.022Z,386
2016-03-15T16:25:47.113Z,340
2016-03-15T16:28:59.152Z,367
2016-03-15T16:32:09.707Z,298
2016-03-15T16:35:19.871Z,258
2016-03-15T16:38:37.801Z,237
2016-03-15T16:41:39.028Z,224
2016-03-15T16:44:51.476Z,205
2016-03-15T16:48:03.484Z,181
2016-03-15T16:51:15.851Z,163
2016-03-15T16:54:33.656Z,121
2016-03-15T16:57:34.836Z,86
2016-03-15T17:00:46.674Z,63
2016-03-15T17:03:55.135Z,53
2016-03-15T17:07:07.253Z,38
2016-03-15T17:10:19.356Z,27
2016-03-15T17:13:34.301Z,19
2016-03-15T17:16:35.168Z,14
2016-03-15T17:19:45.992Z,10
2016-03-15T17:22:55.969Z,7
2016-03-15T17:26:06.102Z,5
2016-03-15T17:29:19.032Z,3
2016-03-15T17:32:36.180Z,3
2016-03-15T17:35:37.016Z,2
2016-03-15T17:38:49.199Z,1
2016-03-15T17:42:01.284Z,1
2016-03-15T17:45:10.465Z,0
2016-03-15T17:48:22.208Z,1
2016-03-15T17:51:36.591Z,1
2016-03-15T17:54:37.553Z,1
2016-03-15T17:57:49.516Z,1
2016-03-15T18:01:01.477Z,1
2016-03-15T18:04:13.438Z,1
2016-03-15T18:07:31.384Z,1
2016-03-15T18:10:38.501Z,1
2016-03-15T18:13:39.384Z,1
2016-03-15T18:16:51.332Z,1
2016-03-15T18:20:01.153Z,1
2016-03-15T18:23:13.177Z,1
2016-03-15T18:26:31.200Z,1
2016-03-15T18:29:38.177Z,1
2016-03-15T18:32:38.966Z,1
2016-03-15T18:35:50.571Z,1
2016-03-15T18:39:02.407Z,0
2016-03-15T18:42:14.353Z,0
2016-03-15T18:45:31.767Z,0
2016-03-15T18:48:38.837Z,0
2016-03-15T18:51:39.798Z,1
2016-03-15T18:54:49.809Z,1
2016-03-15T18:58:01.803Z,1
2016-03-15T19:01:13.404Z,1
2016-03-15T19:04:31.287Z,1
2016-03-15T19:07:38.452Z,1
2016-03-15T19:10:39.444Z,1
2016-03-15T19:13:51.579Z,1
2016-03-15T19:17:03.401Z,1
2016-03-15T19:20:15.471Z,1
2016-03-15T19:23:31.682Z,1
2016-03-15T19:26:38.596Z,1
2016-03-15T19:29:39.526Z,1
2016-03-15T19:32:51.381Z,1
2016-03-15T19:36:03.280Z,1
2016-03-15T19:39:16.022Z,1
2016-03-15T19:42:33.218Z,1
2016-03-15T19:45:34.193Z,1
2016-03-15T19:48:42.593Z,1
2016-03-15T19:51:52.478Z,1
2016-03-15T19:55:04.189Z,1
2016-03-15T19:58:15.853Z,1
2016-03-15T20:01:33.550Z,1
2016-03-15T20:04:34.292Z,1
2016-03-15T20:07:44.612Z,1
2016-03-15T20:10:53.201Z,1
2016-03-15T20:14:04.819Z,1
2016-03-15T20:17:16.515Z,1
2016-03-15T20:20:34.445Z,1
2016-03-15T20:23:35.327Z,1
2016-03-15T20:26:45.350Z,1
2016-03-15T20:29:57.112Z,1
2016-03-15T20:33:07.042Z,1
2016-03-15T20:36:18.816Z,1
2016-03-15T20:39:35.105Z,1
2016-03-15T20:42:35.566Z,1
2016-03-15T20:45:45.309Z,1
2016-03-15T20:48:56.960Z,1
2016-03-15T20:52:08.812Z,1
2016-03-15T20:55:17.820Z,1
2016-03-15T20:58:35.453Z,1
2016-03-15T21:01:36.227Z,1
2016-03-15T21:04:45.188Z,1
2016-03-15T21:07:58.455Z,1
2016-03-15T21:11:07.947Z,1
2016-03-15T21:14:16.846Z,1
2016-03-15T21:17:31.963Z,1
2016-03-15T21:20:38.691Z,1
2016-03-15T21:23:39.385Z,1
2016-03-15T21:26:51.084Z,1
2016-03-15T21:30:02.045Z,1
2016-03-15T21:33:13.881Z,1
2016-03-15T21:36:31.123Z,1
2016-03-15T21:39:37.725Z,1
2016-03-15T21:42:38.296Z,1
2016-03-15T21:45:49.991Z,1
2016-03-15T21:48:59.675Z,1
2016-03-15T21:52:12.119Z,1
2016-03-15T21:55:20.003Z,1
2016-03-15T21:58:34.824Z,1
2016-03-15T22:01:35.488Z,1
2016-03-15T22:04:43.731Z,1
2016-03-15T22:07:53.755Z,1
2016-03-15T22:11:02.938Z,1
2016-03-15T22:14:11.211Z,1
2016-03-15T22:17:22.969Z,1
2016-03-15T22:20:37.212Z,1
2016-03-15T22:23:38.016Z,1
2016-03-15T22:26:49.369Z,1
2016-03-15T22:30:00.739Z,1
2016-03-15T22:33:12.278Z,1
2016-03-15T22:36:23.489Z,1
2016-03-15T22:39:38.201Z,1
2016-03-15T22:42:40.849Z,1
2016-03-15T22:45:47.013Z,1
2016-03-15T22:48:58.771Z,1
2016-03-15T22:52:10.486Z,1
2016-03-15T22:55:18.322Z,1
2016-03-15T22:58:36.033Z,1
2016-03-15T23:01:36.603Z,1
2016-03-15T23:04:48.189Z,1
2016-03-15T23:07:57.433Z,1
2016-03-15T23:11:09.222Z,1
2016-03-15T23:14:19.498Z,1
2016-03-15T23:17:34.975Z,1
2016-03-15T23:20:35.654Z,1
2016-03-15T23:23:43.756Z,1
2016-03-15T23:26:53.328Z,1
2016-03-15T23:30:01.757Z,1
2016-03-15T23:33:10.565Z,1
2016-03-15T23:36:22.088Z,1
2016-03-15T23:39:38.159Z,1
2016-03-15T23:42:38.777Z,1
2016-03-15T23:45:49.831Z,1
2016-03-15T23:48:58.980Z,1
2016-03-15T23:52:07.973Z,1
2016-03-15T23:55:18.077Z,1
2016-03-15T23:58:35.725Z,1
